Time,TemperatureF,DewpointF,PressureIn,WindDirection,WindDirectionDegrees,WindSpeedMPH,WindSpeedGustMPH,Humidity,HourlyPrecipIn,Conditions,Clouds,dailyrainin,SolarRadiationWatts/m^2,SoftwareType,DateUTC
2013-05-14 00:01:00,55.0,37.0,-100.00,WNW,298,4.0,13.0,50,-99.99,,,0.00,0.000000,,2013-05-14 06:01:00,
2013-05-14 00:12:00,55.0,37.0,-100.00,WNW,298,4.0,13.0,50,-99.99,,,0.00,0.000000,,2013-05-14 06:12:00,
2013-05-14 00:42:00,54.0,35.0,-100.00,WSW,256,3.0,7.0,48,-99.99,,,0.00,0.000000,,2013-05-14 06:42:00,
2013-05-14 00:52:00,54.0,35.0,-100.00,WSW,256,3.0,7.0,48,-99.99,,,0.00,0.000000,,2013-05-14 06:52:00,
2013-05-14 01:01:00,54.0,35.0,-100.00,WSW,256,3.0,7.0,48,-99.99,,,0.00,0.000000,,2013-05-14 07:01:00,
2013-05-14 01:11:00,54.0,35.0,-100.00,WSW,256,3.0,7.0,48,-99.99,,,0.00,0.000000,,2013-05-14 07:11:00,
2013-05-14 01:41:00,54.0,33.0,-100.00,SSW,205,3.0,11.0,45,-99.99,,,0.00,0.000000,,2013-05-14 07:41:00,
2013-05-14 01:52:00,54.0,33.0,-100.00,SSW,205,3.0,11.0,45,-99.99,,,0.00,0.000000,,2013-05-14 07:52:00,
2013-05-14 02:02:00,54.0,33.0,-100.00,SSW,205,3.0,11.0,45,-99.99,,,0.00,0.000000,,2013-05-14 08:02:00,
2013-05-14 02:11:00,54.0,33.0,-100.00,SSW,205,3.0,11.0,45,-99.99,,,0.00,0.000000,,2013-05-14 08:11:00,
2013-05-14 02:41:00,47.0,37.0,-100.00,ENE,62,3.0,7.0,68,-99.99,,,0.00,0.000000,,2013-05-14 08:41:00,
2013-05-14 02:52:00,47.0,37.0,-100.00,ENE,62,3.0,7.0,68,-99.99,,,0.00,0.000000,,2013-05-14 08:52:00,
2013-05-14 03:01:00,47.0,37.0,-100.00,ENE,62,3.0,7.0,68,-99.99,,,0.00,0.000000,,2013-05-14 09:01:00,
2013-05-14 03:11:00,47.0,37.0,-100.00,ENE,62,3.0,7.0,68,-99.99,,,0.00,0.000000,,2013-05-14 09:11:00,
2013-05-14 03:44:00,48.0,35.0,-100.00,East,99,5.0,8.0,60,-99.99,,,0.00,0.000000,,2013-05-14 09:44:00,
2013-05-14 03:54:00,48.0,35.0,-100.00,East,99,5.0,8.0,60,-99.99,,,0.00,0.000000,,2013-05-14 09:54:00,
2013-05-14 04:04:00,48.0,35.0,-100.00,East,99,5.0,8.0,60,-99.99,,,0.00,0.000000,,2013-05-14 10:04:00,
2013-05-14 04:14:00,48.0,35.0,-100.00,East,99,5.0,8.0,60,-99.99,,,0.00,0.000000,,2013-05-14 10:14:00,
2013-05-14 04:42:00,46.0,35.0,-100.00,SE,142,3.0,7.0,65,-99.99,,,0.00,0.000000,,2013-05-14 10:42:00,
2013-05-14 04:52:00,46.0,35.0,-100.00,SE,142,3.0,7.0,65,-99.99,,,0.00,0.000000,,2013-05-14 10:52:00,
2013-05-14 05:02:00,46.0,35.0,-100.00,SE,142,3.0,7.0,65,-99.99,,,0.00,0.000000,,2013-05-14 11:02:00,
2013-05-14 05:11:00,46.0,35.0,-100.00,SE,142,3.0,7.0,65,-99.99,,,0.00,0.000000,,2013-05-14 11:11:00,
2013-05-14 05:43:00,45.0,36.0,-100.00,East,91,4.0,7.0,70,-99.99,,,0.00,0.000000,,2013-05-14 11:43:00,
2013-05-14 05:53:00,45.0,36.0,-100.00,East,91,4.0,7.0,70,-99.99,,,0.00,0.000000,,2013-05-14 11:53:00,
2013-05-14 06:02:00,45.0,36.0,-100.00,East,91,4.0,7.0,70,-99.99,,,0.00,0.000000,,2013-05-14 12:02:00,
2013-05-14 06:12:00,45.0,36.0,-100.00,East,91,4.0,7.0,70,-99.99,,,0.00,0.000000,,2013-05-14 12:12:00,
2013-05-14 06:42:00,47.0,35.0,-100.00,ESE,113,2.0,5.0,63,-99.99,,,0.00,3.950000,,2013-05-14 12:42:00,
2013-05-14 06:52:00,47.0,35.0,-100.00,ESE,113,2.0,5.0,63,-99.99,,,0.00,3.950000,,2013-05-14 12:52:00,
2013-05-14 07:01:00,47.0,35.0,-100.00,ESE,113,2.0,5.0,63,-99.99,,,0.00,3.950000,,2013-05-14 13:01:00,
2013-05-14 07:11:00,47.0,35.0,-100.00,ESE,113,2.0,5.0,63,-99.99,,,0.00,3.950000,,2013-05-14 13:11:00,
2013-05-14 07:41:00,49.0,35.0,-100.00,NNE,19,1.0,5.0,59,-99.99,,,0.00,59.270000,,2013-05-14 13:41:00,
2013-05-14 07:52:00,49.0,35.0,-100.00,NNE,19,1.0,5.0,59,-99.99,,,0.00,59.270000,,2013-05-14 13:52:00,
2013-05-14 08:01:00,49.0,35.0,-100.00,NNE,19,1.0,5.0,59,-99.99,,,0.00,59.270000,,2013-05-14 14:01:00,
2013-05-14 08:11:00,49.0,35.0,-100.00,NNE,19,1.0,5.0,59,-99.99,,,0.00,59.270000,,2013-05-14 14:11:00,
2013-05-14 08:41:00,54.0,35.0,-100.00,NNW,330,2.0,5.0,48,-99.99,,,0.00,285.670013,,2013-05-14 14:41:00,
2013-05-14 08:52:00,54.0,35.0,-100.00,NNW,330,2.0,5.0,48,-99.99,,,0.00,285.670013,,2013-05-14 14:52:00,
2013-05-14 09:01:00,54.0,35.0,-100.00,NNW,330,2.0,5.0,48,-99.99,,,0.00,285.670013,,2013-05-14 15:01:00,
2013-05-14 09:11:00,54.0,35.0,-100.00,NNW,330,2.0,5.0,48,-99.99,,,0.00,285.670013,,2013-05-14 15:11:00,
2013-05-14 09:43:00,56.0,33.0,-100.00,ENE,73,2.0,4.0,42,-99.99,,,0.00,393.519989,,2013-05-14 15:43:00,
2013-05-14 09:53:00,56.0,33.0,-100.00,ENE,73,2.0,4.0,42,-99.99,,,0.00,393.519989,,2013-05-14 15:53:00,
2013-05-14 10:02:00,56.0,33.0,-100.00,ENE,73,2.0,4.0,42,-99.99,,,0.00,393.519989,,2013-05-14 16:02:00,
2013-05-14 10:12:00,56.0,33.0,-100.00,ENE,73,2.0,4.0,42,-99.99,,,0.00,393.519989,,2013-05-14 16:12:00,
2013-05-14 10:43:00,57.0,34.0,-100.00,NW,310,2.0,5.0,40,-99.99,,,0.00,663.500000,,2013-05-14 16:43:00,
2013-05-14 10:54:00,57.0,34.0,-100.00,NW,310,2.0,5.0,40,-99.99,,,0.00,663.500000,,2013-05-14 16:54:00,
2013-05-14 11:03:00,57.0,34.0,-100.00,NW,310,2.0,5.0,40,-99.99,,,0.00,663.500000,,2013-05-14 17:03:00,
2013-05-14 11:13:00,57.0,34.0,-100.00,NW,310,2.0,5.0,40,-99.99,,,0.00,663.500000,,2013-05-14 17:13:00,
2013-05-14 11:43:00,59.0,34.0,-100.00,WNW,283,3.0,7.0,39,-99.99,,,0.00,808.770020,,2013-05-14 17:43:00,
2013-05-14 11:52:00,59.0,34.0,-100.00,WNW,283,3.0,7.0,39,-99.99,,,0.00,808.770020,,2013-05-14 17:52:00,
2013-05-14 12:02:00,59.0,34.0,-100.00,WNW,283,3.0,7.0,39,-99.99,,,0.00,808.770020,,2013-05-14 18:02:00,
2013-05-14 12:12:00,59.0,34.0,-100.00,WNW,283,3.0,7.0,39,-99.99,,,0.00,808.770020,,2013-05-14 18:12:00,
2013-05-14 12:42:00,61.0,33.0,-100.00,SSE,161,3.0,9.0,34,-99.99,,,0.00,899.539978,,2013-05-14 18:42:00,
2013-05-14 12:52:00,61.0,33.0,-100.00,SSE,161,3.0,9.0,34,-99.99,,,0.00,899.539978,,2013-05-14 18:52:00,
2013-05-14 13:01:00,61.0,33.0,-100.00,SSE,161,3.0,9.0,34,-99.99,,,0.00,899.539978,,2013-05-14 19:01:00,
2013-05-14 13:11:00,61.0,33.0,-100.00,SSE,161,3.0,9.0,34,-99.99,,,0.00,899.539978,,2013-05-14 19:11:00,
2013-05-14 13:42:00,63.0,33.0,-100.00,NE,40,3.0,7.0,32,-99.99,,,0.00,949.520020,,2013-05-14 19:42:00,
2013-05-14 13:52:00,63.0,33.0,-100.00,NE,40,3.0,7.0,32,-99.99,,,0.00,949.520020,,2013-05-14 19:52:00,
2013-05-14 14:02:00,63.0,33.0,-100.00,NE,40,3.0,7.0,32,-99.99,,,0.00,949.520020,,2013-05-14 20:02:00,
2013-05-14 14:11:00,63.0,33.0,-100.00,NE,40,3.0,7.0,32,-99.99,,,0.00,949.520020,,2013-05-14 20:11:00,
2013-05-14 14:44:00,66.0,30.0,-100.00,North,351,2.0,8.0,26,-99.99,,,0.00,949.520020,,2013-05-14 20:44:00,
2013-05-14 14:52:00,66.0,30.0,-100.00,North,351,2.0,8.0,26,-99.99,,,0.00,949.520020,,2013-05-14 20:52:00,
2013-05-14 15:03:00,66.0,30.0,-100.00,North,351,2.0,8.0,26,-99.99,,,0.00,949.520020,,2013-05-14 21:03:00,
2013-05-14 15:12:00,66.0,30.0,-100.00,North,351,2.0,8.0,26,-99.99,,,0.00,949.520020,,2013-05-14 21:12:00,
2013-05-14 16:45:00,69.0,32.0,-100.00,NNW,343,2.0,9.0,25,-99.99,,,0.00,737.760010,,2013-05-14 22:45:00,
2013-05-14 16:54:00,69.0,32.0,-100.00,NNW,343,2.0,9.0,25,-99.99,,,0.00,737.760010,,2013-05-14 22:54:00,
2013-05-14 17:03:00,69.0,32.0,-100.00,NNW,343,2.0,9.0,25,-99.99,,,0.00,737.760010,,2013-05-14 23:03:00,
2013-05-14 17:12:00,69.0,32.0,-100.00,NNW,343,2.0,9.0,25,-99.99,,,0.00,737.760010,,2013-05-14 23:12:00,
2013-05-14 17:44:00,69.0,33.0,-100.00,North,2,2.0,8.0,26,-99.99,,,0.00,626.770020,,2013-05-14 23:44:00,
2013-05-14 17:52:00,69.0,33.0,-100.00,North,2,2.0,8.0,26,-99.99,,,0.00,626.770020,,2013-05-14 23:52:00,
2013-05-14 18:01:00,69.0,33.0,-100.00,North,2,2.0,8.0,26,-99.99,,,0.00,626.770020,,2013-05-15 00:01:00,
2013-05-14 18:11:00,69.0,33.0,-100.00,North,2,2.0,8.0,26,-99.99,,,0.00,626.770020,,2013-05-15 00:11:00,
2013-05-14 19:42:00,66.0,34.0,-100.00,North,0,2.0,7.0,30,-99.99,,,0.00,230.580002,,2013-05-15 01:42:00,
2013-05-14 19:52:00,66.0,34.0,-100.00,North,0,2.0,7.0,30,-99.99,,,0.00,230.580002,,2013-05-15 01:52:00,
2013-05-14 20:01:00,66.0,34.0,-100.00,North,0,2.0,7.0,30,-99.99,,,0.00,230.580002,,2013-05-15 02:01:00,
2013-05-14 20:11:00,66.0,34.0,-100.00,North,0,2.0,7.0,30,-99.99,,,0.00,230.580002,,2013-05-15 02:11:00,
2013-05-14 20:42:00,60.0,33.0,-100.00,NNE,25,2.0,7.0,35,-99.99,,,0.00,34.980000,,2013-05-15 02:42:00,
2013-05-14 20:52:00,60.0,33.0,-100.00,NNE,25,2.0,7.0,35,-99.99,,,0.00,34.980000,,2013-05-15 02:52:00,
2013-05-14 21:01:00,60.0,33.0,-100.00,NNE,25,2.0,7.0,35,-99.99,,,0.00,34.980000,,2013-05-15 03:01:00,
2013-05-14 21:12:00,60.0,33.0,-100.00,NNE,25,2.0,7.0,35,-99.99,,,0.00,34.980000,,2013-05-15 03:12:00,
2013-05-14 21:44:00,56.0,31.0,-100.00,NNE,33,2.0,6.0,38,-99.99,,,0.00,2.210000,,2013-05-15 03:44:00,
2013-05-14 21:54:00,56.0,31.0,-100.00,NNE,33,2.0,6.0,38,-99.99,,,0.00,2.210000,,2013-05-15 03:54:00,
2013-05-14 22:03:00,56.0,31.0,-100.00,NNE,33,2.0,6.0,38,-99.99,,,0.00,2.210000,,2013-05-15 04:03:00,
2013-05-14 22:12:00,56.0,31.0,-100.00,NNE,33,2.0,6.0,38,-99.99,,,0.00,2.210000,,2013-05-15 04:12:00,
2013-05-14 22:42:00,55.0,30.0,-100.00,ENE,59,3.0,9.0,38,-99.99,,,0.00,0.000000,,2013-05-15 04:42:00,
2013-05-14 22:52:00,55.0,30.0,-100.00,ENE,59,3.0,9.0,38,-99.99,,,0.00,0.000000,,2013-05-15 04:52:00,
2013-05-14 23:02:00,55.0,30.0,-100.00,ENE,59,3.0,9.0,38,-99.99,,,0.00,0.000000,,2013-05-15 05:02:00,
2013-05-14 23:11:00,55.0,30.0,-100.00,ENE,59,3.0,9.0,38,-99.99,,,0.00,0.000000,,2013-05-15 05:11:00,
2013-05-14 23:42:00,54.0,29.0,-100.00,NE,43,2.0,6.0,37,-99.99,,,0.00,0.000000,,2013-05-15 05:42:00,
2013-05-14 23:52:00,54.0,29.0,-100.00,NE,43,2.0,6.0,37,-99.99,,,0.00,0.000000,,2013-05-15 05:52:00,